createdAt,value
2022-09-13T00:01:00.707Z,100.00
2022-09-13T00:03:27.683Z,100.00
2022-09-13T00:05:54.340Z,100.00
2022-09-13T00:08:21.240Z,100.00
2022-09-13T00:10:48.197Z,100.00
2022-09-13T00:13:15.782Z,100.00
2022-09-13T00:15:44.519Z,100.00
2022-09-13T00:18:11.023Z,100.00
2022-09-13T00:20:37.806Z,100.00
2022-09-13T00:23:04.292Z,100.00
2022-09-13T00:25:30.696Z,100.00
2022-09-13T00:27:57.233Z,100.00
2022-09-13T00:30:23.635Z,100.00
2022-09-13T00:32:50.045Z,100.00
2022-09-13T00:35:16.467Z,100.00
2022-09-13T00:37:42.860Z,100.00
2022-09-13T00:40:10.705Z,100.00
2022-09-13T00:42:37.396Z,100.00
2022-09-13T00:45:06.569Z,100.00
2022-09-13T00:47:52.722Z,100.00
2022-09-13T00:50:23.856Z,100.00
2022-09-13T00:53:11.355Z,100.00
2022-09-13T00:55:49.805Z,100.00
2022-09-13T00:58:20.764Z,100.00
2022-09-13T01:00:48.096Z,100.00
2022-09-13T01:03:18.645Z,100.00
2022-09-13T01:05:54.342Z,100.00
2022-09-13T01:08:23.059Z,100.00
2022-09-13T01:10:52.233Z,100.00
2022-09-13T01:13:24.633Z,100.00
2022-09-13T01:15:51.920Z,100.00
2022-09-13T01:18:19.000Z,100.00
2022-09-13T01:21:16.492Z,100.00
2022-09-13T01:24:01.419Z,100.00
2022-09-13T01:26:48.180Z,100.00
2022-09-13T01:29:37.637Z,100.00
2022-09-13T01:32:13.298Z,100.00
2022-09-13T01:35:14.245Z,100.00
2022-09-13T01:38:14.049Z,100.00
2022-09-13T01:41:01.851Z,100.00
2022-09-13T01:44:07.390Z,100.00
2022-09-13T01:46:47.843Z,100.00
2022-09-13T01:49:37.893Z,100.00
2022-09-13T01:52:37.062Z,100.00
2022-09-13T01:55:11.201Z,100.00
2022-09-13T01:58:05.607Z,100.00
2022-09-13T02:00:38.247Z,100.00
2022-09-13T02:03:18.349Z,100.00
2022-09-13T02:05:51.711Z,100.00
2022-09-13T02:08:24.460Z,100.00
2022-09-13T02:10:59.686Z,100.00
2022-09-13T02:13:31.756Z,100.00
2022-09-13T02:16:05.954Z,100.00
2022-09-13T02:18:38.678Z,100.00
2022-09-13T02:21:14.539Z,100.00
2022-09-13T02:24:03.500Z,100.00
2022-09-13T02:26:31.620Z,100.00
2022-09-13T02:29:02.950Z,100.00
2022-09-13T02:31:37.030Z,100.00
2022-09-13T02:34:08.619Z,100.00
2022-09-13T02:36:40.753Z,100.00
2022-09-13T02:39:13.090Z,100.00
2022-09-13T02:41:46.466Z,100.00
2022-09-13T02:44:19.532Z,100.00
2022-09-13T02:47:03.881Z,100.00
2022-09-13T02:49:58.044Z,100.00
2022-09-13T02:52:58.038Z,100.00
2022-09-13T02:56:01.979Z,100.00
2022-09-13T02:58:47.004Z,100.00
2022-09-13T03:01:14.871Z,100.00
2022-09-13T03:03:41.787Z,100.00
2022-09-13T03:06:08.342Z,100.00
2022-09-13T03:08:35.666Z,100.00
2022-09-13T03:11:08.137Z,100.00
2022-09-13T03:13:40.107Z,100.00
2022-09-13T03:16:57.454Z,100.00
2022-09-13T03:19:44.615Z,100.00
2022-09-13T03:22:23.545Z,100.00
2022-09-13T03:25:00.343Z,100.00
2022-09-13T03:27:54.385Z,100.00
2022-09-13T03:30:20.917Z,100.00
2022-09-13T03:33:20.707Z,100.00
2022-09-13T03:35:55.287Z,100.00
2022-09-13T03:38:36.135Z,100.00
2022-09-13T03:41:10.408Z,100.00
2022-09-13T03:43:50.788Z,100.00
2022-09-13T03:46:32.229Z,100.00
2022-09-13T03:49:04.318Z,100.00
2022-09-13T03:51:31.322Z,100.00
2022-09-13T03:54:04.889Z,100.00
2022-09-13T03:56:31.601Z,100.00
2022-09-13T03:58:58.055Z,100.00
2022-09-13T04:01:25.047Z,100.00
2022-09-13T04:03:56.405Z,100.00
2022-09-13T04:06:23.398Z,100.00
2022-09-13T04:08:50.021Z,100.00
2022-09-13T04:11:16.729Z,100.00
2022-09-13T04:13:43.244Z,100.00
2022-09-13T04:16:09.747Z,100.00
2022-09-13T04:18:36.573Z,100.00
2022-09-13T04:21:04.517Z,100.00
2022-09-13T04:23:31.189Z,100.00
2022-09-13T04:26:04.961Z,100.00
2022-09-13T04:28:31.372Z,100.00
2022-09-13T04:30:57.932Z,100.00
2022-09-13T04:33:24.681Z,100.00
2022-09-13T04:35:58.168Z,100.00
2022-09-13T04:38:24.639Z,100.00
2022-09-13T04:40:55.456Z,100.00
2022-09-13T04:43:22.883Z,100.00
2022-09-13T04:45:49.438Z,100.00
2022-09-13T04:48:16.440Z,100.00
2022-09-13T04:50:43.186Z,100.00
2022-09-13T04:53:09.616Z,100.00
2022-09-13T04:55:36.837Z,100.00
2022-09-13T04:58:04.109Z,100.00
2022-09-13T05:00:31.571Z,100.00
2022-09-13T05:02:57.959Z,100.00
2022-09-13T05:05:25.854Z,100.00
2022-09-13T05:07:52.785Z,100.00
2022-09-13T05:10:19.686Z,100.00
2022-09-13T05:12:46.556Z,100.00
2022-09-13T05:15:13.414Z,100.00
2022-09-13T05:17:39.827Z,100.00
2022-09-13T05:20:06.819Z,100.00
2022-09-13T05:22:33.273Z,100.00
2022-09-13T05:24:59.679Z,100.00
2022-09-13T05:27:26.108Z,100.00
2022-09-13T05:29:52.484Z,100.00
2022-09-13T05:32:18.901Z,100.00
2022-09-13T05:34:45.684Z,100.00
2022-09-13T05:37:12.097Z,100.00
2022-09-13T05:40:00.384Z,100.00
2022-09-13T05:42:24.901Z,100.00
2022-09-13T05:44:51.298Z,100.00
2022-09-13T05:47:17.707Z,100.00
2022-09-13T05:50:08.389Z,100.00
2022-09-13T05:52:30.541Z,100.00
2022-09-13T05:54:56.935Z,100.00
2022-09-13T05:57:23.370Z,100.00
2022-09-13T05:59:49.765Z,100.00
2022-09-13T06:02:16.268Z,100.00
2022-09-13T06:04:42.677Z,100.00
2022-09-13T06:07:12.072Z,100.00
2022-09-13T06:09:38.542Z,100.00
2022-09-13T06:12:05.096Z,100.00
2022-09-13T06:14:31.533Z,100.00
2022-09-13T06:16:57.942Z,100.00
2022-09-13T06:19:24.483Z,100.00
2022-09-13T06:21:50.918Z,100.00
2022-09-13T06:24:17.407Z,100.00
2022-09-13T06:26:43.855Z,100.00
2022-09-13T06:29:11.128Z,100.00
2022-09-13T06:31:39.081Z,100.00
2022-09-13T06:34:05.574Z,100.00
2022-09-13T06:36:31.973Z,100.00
2022-09-13T06:39:00.480Z,100.00
2022-09-13T06:41:28.026Z,100.00
2022-09-13T06:43:57.593Z,100.00
2022-09-13T06:46:25.640Z,100.00
2022-09-13T06:48:54.238Z,100.00
2022-09-13T06:51:25.240Z,100.00
2022-09-13T06:53:52.922Z,100.00
2022-09-13T06:56:22.108Z,100.00
2022-09-13T06:58:51.404Z,100.00
2022-09-13T07:01:20.952Z,100.00
2022-09-13T07:03:57.575Z,100.00
2022-09-13T07:06:29.680Z,100.00
2022-09-13T07:08:57.646Z,100.00
2022-09-13T07:11:26.221Z,100.00
2022-09-13T07:13:55.043Z,100.00
2022-09-13T07:16:24.100Z,100.00
2022-09-13T07:18:59.077Z,100.00
2022-09-13T07:21:27.396Z,100.00
2022-09-13T07:23:55.322Z,100.00
2022-09-13T07:26:22.345Z,100.00
2022-09-13T07:28:52.774Z,100.00
2022-09-13T07:31:32.303Z,100.00
2022-09-13T07:34:04.170Z,100.00
2022-09-13T07:36:32.293Z,100.00
2022-09-13T07:38:59.623Z,100.00
2022-09-13T07:41:27.704Z,100.00
2022-09-13T07:43:55.365Z,100.00
2022-09-13T07:46:25.201Z,100.00
2022-09-13T07:48:56.832Z,100.00
2022-09-13T07:51:25.950Z,100.00
2022-09-13T07:53:57.449Z,100.00
2022-09-13T07:56:27.734Z,100.00
2022-09-13T07:58:55.102Z,100.00
2022-09-13T08:01:30.628Z,100.00
2022-09-13T08:03:59.395Z,100.00
2022-09-13T08:06:27.987Z,100.00
2022-09-13T08:08:54.929Z,100.00
2022-09-13T08:11:28.281Z,100.00
2022-09-13T08:13:54.777Z,100.00
2022-09-13T08:16:23.530Z,100.00
2022-09-13T08:18:52.149Z,100.00
2022-09-13T08:21:18.725Z,100.00
2022-09-13T08:23:45.772Z,100.00
2022-09-13T08:26:12.680Z,100.00
2022-09-13T08:28:40.415Z,100.00
2022-09-13T08:31:09.406Z,100.00
2022-09-13T08:33:36.121Z,100.00
2022-09-13T08:36:03.972Z,100.00
2022-09-13T08:38:31.199Z,100.00
2022-09-13T08:41:06.075Z,100.00
2022-09-13T08:43:44.295Z,100.00
2022-09-13T08:46:33.626Z,100.00
2022-09-13T08:49:05.487Z,100.00
2022-09-13T08:51:40.281Z,100.00
2022-09-13T08:54:12.003Z,100.00
2022-09-13T08:56:44.797Z,100.00
2022-09-13T08:59:17.275Z,100.00
2022-09-13T09:02:07.532Z,100.00
2022-09-13T09:04:40.940Z,100.00
2022-09-13T09:07:18.967Z,100.00
2022-09-13T09:09:54.084Z,100.00
2022-09-13T09:12:46.134Z,100.00
2022-09-13T09:15:23.937Z,100.00
2022-09-13T09:17:53.032Z,100.00
2022-09-13T09:20:36.687Z,100.00
2022-09-13T09:23:16.714Z,100.00
2022-09-13T09:25:46.917Z,100.00
2022-09-13T09:28:15.839Z,100.00
2022-09-13T09:31:25.248Z,100.00
2022-09-13T09:33:54.956Z,100.00
2022-09-13T09:36:21.307Z,100.00
2022-09-13T09:38:48.441Z,100.00
2022-09-13T09:41:32.674Z,99.93
2022-09-13T09:44:08.922Z,100.00
2022-09-13T09:46:40.371Z,100.00
2022-09-13T09:49:50.532Z,97.06
2022-09-13T09:52:23.039Z,98.04
2022-09-13T09:54:50.749Z,96.04
2022-09-13T09:57:20.556Z,95.48
2022-09-13T09:59:47.577Z,95.62
2022-09-13T10:02:21.801Z,92.91
2022-09-13T10:04:59.821Z,95.83
2022-09-13T10:07:35.673Z,93.25
2022-09-13T10:10:21.682Z,93.79
2022-09-13T10:12:54.114Z,91.10
2022-09-13T10:15:23.487Z,89.36
2022-09-13T10:18:21.104Z,89.19
2022-09-13T10:21:01.676Z,87.73
2022-09-13T10:23:28.916Z,89.03
2022-09-13T10:26:22.513Z,87.19
2022-09-13T10:28:52.033Z,88.29
2022-09-13T10:31:20.801Z,87.46
2022-09-13T10:33:49.956Z,87.92
2022-09-13T10:36:48.652Z,86.35
2022-09-13T10:39:18.182Z,83.25
2022-09-13T10:41:54.903Z,84.49
2022-09-13T10:44:32.660Z,86.63
2022-09-13T10:47:04.643Z,84.87
2022-09-13T10:50:10.844Z,82.68
2022-09-13T10:52:46.382Z,85.45
2022-09-13T10:55:18.660Z,81.12
2022-09-13T10:57:47.537Z,81.27
2022-09-13T11:00:20.272Z,79.38
2022-09-13T11:02:58.976Z,80.18
2022-09-13T11:06:06.813Z,80.07
2022-09-13T11:08:40.698Z,78.64
2022-09-13T11:11:32.029Z,77.68
2022-09-13T11:14:10.577Z,77.96
2022-09-13T11:16:49.287Z,78.06
2022-09-13T11:19:28.652Z,77.47
2022-09-13T11:22:04.252Z,75.46
2022-09-13T11:24:30.658Z,75.78
2022-09-13T11:27:02.401Z,77.22
2022-09-13T11:30:04.940Z,73.78
2022-09-13T11:32:43.658Z,73.69
2022-09-13T11:35:16.196Z,74.93
2022-09-13T11:38:27.445Z,72.32
2022-09-13T11:41:05.245Z,76.17
2022-09-13T11:43:47.305Z,74.78
2022-09-13T11:46:22.706Z,71.58
2022-09-13T11:49:10.110Z,73.27
2022-09-13T11:51:49.560Z,73.47
2022-09-13T11:54:48.514Z,71.27
2022-09-13T11:57:21.482Z,72.08
2022-09-13T11:59:54.556Z,70.70
2022-09-13T12:02:36.913Z,69.15
2022-09-13T12:05:22.469Z,69.78
2022-09-13T12:08:05.709Z,71.66
2022-09-13T12:10:41.055Z,70.75
2022-09-13T12:13:16.646Z,71.12
2022-09-13T12:15:46.489Z,72.31
2022-09-13T12:18:29.857Z,69.95
2022-09-13T12:21:03.535Z,72.46
2022-09-13T12:23:31.694Z,70.21
2022-09-13T12:26:03.425Z,71.12
2022-09-13T12:28:39.189Z,72.67
2022-09-13T12:31:11.607Z,71.56
2022-09-13T12:33:42.668Z,71.12
2022-09-13T12:36:12.222Z,71.92
2022-09-13T12:38:41.569Z,69.71
2022-09-13T12:41:30.869Z,68.22
2022-09-13T12:44:16.008Z,67.73
2022-09-13T12:46:51.629Z,68.98
2022-09-13T12:50:15.102Z,67.26
2022-09-13T12:52:48.625Z,67.48
2022-09-13T12:55:47.652Z,67.03
2022-09-13T12:58:46.559Z,65.96
2022-09-13T13:01:26.054Z,65.80
2022-09-13T13:03:58.567Z,65.81
2022-09-13T13:06:30.985Z,66.22
2022-09-13T13:09:01.084Z,65.26
2022-09-13T13:11:31.311Z,64.21
2022-09-13T13:14:02.186Z,65.52
2022-09-13T13:16:31.573Z,65.18
2022-09-13T13:18:59.821Z,65.36
2022-09-13T13:21:34.103Z,64.56
2022-09-13T13:24:15.824Z,65.20
2022-09-13T13:26:42.175Z,67.26
2022-09-13T13:29:11.546Z,65.65
2022-09-13T13:31:40.304Z,65.95
2022-09-13T13:34:08.284Z,66.35
2022-09-13T13:36:43.724Z,66.45
2022-09-13T13:39:27.686Z,67.81
2022-09-13T13:41:57.053Z,69.05
2022-09-13T13:44:23.390Z,69.04
2022-09-13T13:46:55.447Z,69.24
2022-09-13T13:49:30.679Z,66.88
2022-09-13T13:52:06.264Z,67.74
2022-09-13T13:54:41.846Z,69.49
2022-09-13T13:57:23.787Z,68.40
2022-09-13T13:59:53.796Z,67.28
2022-09-13T14:02:28.613Z,67.04
2022-09-13T14:05:09.216Z,66.89
2022-09-13T14:07:57.037Z,66.82
2022-09-13T14:10:52.808Z,66.38
2022-09-13T14:13:34.141Z,66.39
2022-09-13T14:16:09.182Z,65.88
2022-09-13T14:18:45.057Z,66.13
2022-09-13T14:21:23.866Z,66.85
2022-09-13T14:23:51.295Z,66.17
2022-09-13T14:26:17.997Z,66.68
2022-09-13T14:28:44.530Z,67.66
2022-09-13T14:31:20.250Z,67.76
2022-09-13T14:33:46.958Z,66.68
2022-09-13T14:36:20.267Z,67.33
2022-09-13T14:38:55.512Z,67.67
2022-09-13T14:41:29.605Z,66.91
2022-09-13T14:44:23.677Z,66.90
2022-09-13T14:46:56.995Z,67.58
2022-09-13T14:49:29.875Z,68.08
2022-09-13T14:52:03.733Z,67.56
2022-09-13T14:54:44.566Z,67.63
2022-09-13T14:57:29.053Z,68.22
2022-09-13T15:00:01.137Z,67.08
2022-09-13T15:02:31.700Z,67.83
2022-09-13T15:05:00.751Z,67.85
2022-09-13T15:07:35.881Z,67.43
2022-09-13T15:10:12.938Z,67.99
2022-09-13T15:12:57.961Z,66.55
2022-09-13T15:15:43.746Z,67.54
2022-09-13T15:18:28.268Z,67.02
2022-09-13T15:21:06.371Z,67.36
2022-09-13T15:23:42.419Z,68.14
2022-09-13T15:26:13.338Z,68.25
2022-09-13T15:28:48.811Z,68.60
2022-09-13T15:31:26.788Z,68.58
2022-09-13T15:34:17.468Z,67.80
2022-09-13T15:36:45.741Z,68.47
2022-09-13T15:39:18.409Z,67.63
2022-09-13T15:42:00.336Z,66.52
2022-09-13T15:44:29.726Z,67.61
2022-09-13T15:46:59.794Z,67.51
2022-09-13T15:49:27.941Z,67.63
2022-09-13T15:51:56.875Z,66.95
2022-09-13T15:54:25.842Z,68.01
2022-09-13T15:56:52.900Z,67.63
2022-09-13T15:59:21.703Z,67.57
2022-09-13T16:01:50.061Z,67.80
2022-09-13T16:04:16.940Z,68.54
2022-09-13T16:06:44.284Z,67.87
2022-09-13T16:09:18.770Z,67.26
2022-09-13T16:11:47.084Z,67.33
2022-09-13T16:14:14.812Z,67.68
2022-09-13T16:16:41.753Z,67.89
2022-09-13T16:19:34.809Z,68.56
2022-09-13T16:22:01.364Z,69.20
2022-09-13T16:24:27.829Z,69.79
2022-09-13T16:26:54.668Z,70.56
2022-09-13T16:29:21.135Z,71.11
2022-09-13T16:31:47.612Z,71.23
2022-09-13T16:34:14.078Z,71.51
2022-09-13T16:36:40.525Z,72.50
2022-09-13T16:39:06.993Z,72.88
2022-09-13T16:41:33.397Z,73.90
2022-09-13T16:43:59.855Z,74.22
2022-09-13T16:46:26.842Z,74.32
2022-09-13T16:48:54.557Z,74.07
2022-09-13T16:51:21.634Z,73.60
2022-09-13T16:53:50.169Z,73.92
2022-09-13T16:56:18.546Z,73.63
2022-09-13T16:58:49.293Z,73.39
2022-09-13T17:01:20.282Z,72.91
2022-09-13T17:03:47.504Z,73.07
2022-09-13T17:06:17.132Z,73.06
2022-09-13T17:08:48.561Z,73.35
2022-09-13T17:11:17.578Z,73.70
2022-09-13T17:13:44.040Z,74.18
2022-09-13T17:16:29.914Z,74.96
2022-09-13T17:18:58.239Z,75.41
2022-09-13T17:21:25.649Z,76.11
2022-09-13T17:23:52.538Z,76.32
2022-09-13T17:26:18.969Z,76.87
2022-09-13T17:28:45.455Z,77.45
2022-09-13T17:31:12.127Z,78.12
2022-09-13T17:33:38.762Z,78.56
2022-09-13T17:36:10.269Z,79.16
2022-09-13T17:38:37.366Z,79.89
2022-09-13T17:41:09.407Z,80.18
2022-09-13T17:43:36.825Z,80.38
2022-09-13T17:46:05.561Z,80.37
2022-09-13T17:48:32.196Z,80.48
2022-09-13T17:51:10.665Z,80.65
2022-09-13T17:53:39.640Z,80.60
2022-09-13T17:56:07.532Z,80.62
2022-09-13T17:58:34.575Z,80.69
2022-09-13T18:01:10.396Z,81.26
2022-09-13T18:03:38.625Z,81.70
2022-09-13T18:06:07.254Z,82.22
2022-09-13T18:08:35.845Z,82.57
2022-09-13T18:11:22.565Z,83.45
2022-09-13T18:13:49.339Z,83.63
2022-09-13T18:16:21.415Z,84.07
2022-09-13T18:18:49.534Z,84.92
2022-09-13T18:21:19.118Z,85.16
2022-09-13T18:23:47.552Z,85.76
2022-09-13T18:26:16.911Z,86.12
2022-09-13T18:28:43.775Z,86.68
2022-09-13T18:31:14.298Z,87.33
2022-09-13T18:33:41.060Z,87.87
2022-09-13T18:36:13.339Z,88.77
2022-09-13T18:38:44.972Z,88.46
2022-09-13T18:41:14.793Z,89.35
2022-09-13T18:43:42.743Z,90.08
2022-09-13T18:46:11.608Z,90.88
2022-09-13T18:48:40.600Z,91.19
2022-09-13T18:51:12.400Z,92.13
2022-09-13T18:53:38.952Z,90.96
2022-09-13T18:56:09.612Z,90.57
2022-09-13T18:58:36.707Z,92.08
2022-09-13T19:01:12.579Z,89.88
2022-09-13T19:03:40.425Z,90.71
2022-09-13T19:06:27.390Z,91.75
2022-09-13T19:08:55.469Z,91.72
2022-09-13T19:11:45.236Z,92.45
2022-09-13T19:14:15.506Z,93.40
2022-09-13T19:16:41.976Z,94.24
2022-09-13T19:19:08.782Z,94.45
2022-09-13T19:21:35.204Z,95.42
2022-09-13T19:24:06.472Z,96.26
2022-09-13T19:26:38.261Z,97.16
2022-09-13T19:29:08.227Z,96.86
2022-09-13T19:31:36.937Z,97.82
2022-09-13T19:34:06.126Z,98.22
2022-09-13T19:36:34.623Z,98.54
2022-09-13T19:39:02.093Z,99.17
2022-09-13T19:41:32.075Z,98.46
2022-09-13T19:44:00.676Z,98.92
2022-09-13T19:46:32.835Z,99.63
2022-09-13T19:49:00.774Z,100.00
2022-09-13T19:51:32.831Z,100.00
2022-09-13T19:54:00.546Z,100.00
2022-09-13T19:56:29.639Z,100.00
2022-09-13T19:58:57.500Z,100.00
2022-09-13T20:01:26.474Z,100.00
2022-09-13T20:03:58.453Z,100.00
2022-09-13T20:06:26.816Z,100.00
2022-09-13T20:08:58.249Z,100.00
2022-09-13T20:11:27.817Z,100.00
2022-09-13T20:13:54.841Z,100.00
2022-09-13T20:16:24.600Z,100.00
2022-09-13T20:18:52.140Z,100.00
2022-09-13T20:21:18.841Z,100.00
2022-09-13T20:23:46.633Z,100.00
2022-09-13T20:26:19.460Z,100.00
2022-09-13T20:28:48.081Z,100.00
2022-09-13T20:31:15.339Z,100.00
2022-09-13T20:33:42.821Z,100.00
2022-09-13T20:36:12.130Z,100.00
2022-09-13T20:38:39.637Z,100.00
2022-09-13T20:41:11.683Z,100.00
2022-09-13T20:43:38.859Z,100.00
2022-09-13T20:46:06.350Z,100.00
2022-09-13T20:48:33.897Z,100.00
2022-09-13T20:51:05.726Z,99.77
2022-09-13T20:53:33.524Z,99.17
2022-09-13T20:56:12.427Z,98.96
2022-09-13T20:58:39.643Z,99.02
2022-09-13T21:01:09.045Z,99.16
2022-09-13T21:03:40.449Z,99.95
2022-09-13T21:06:07.922Z,99.72
2022-09-13T21:08:43.483Z,100.00
2022-09-13T21:11:13.912Z,99.65
2022-09-13T21:13:47.207Z,98.77
2022-09-13T21:16:19.647Z,98.58
2022-09-13T21:18:46.748Z,97.93
2022-09-13T21:21:16.226Z,97.98
2022-09-13T21:23:43.894Z,97.72
2022-09-13T21:26:13.819Z,97.31
2022-09-13T21:28:42.781Z,97.34
2022-09-13T21:31:21.530Z,97.54
2022-09-13T21:33:48.751Z,97.23
2022-09-13T21:36:15.250Z,97.76
2022-09-13T21:38:41.713Z,98.16
2022-09-13T21:41:15.089Z,98.39
2022-09-13T21:43:42.324Z,99.07
2022-09-13T21:46:17.358Z,99.62
2022-09-13T21:48:50.222Z,99.79
2022-09-13T21:51:22.683Z,100.00
2022-09-13T21:53:57.618Z,100.00
2022-09-13T21:56:26.672Z,99.94
2022-09-13T21:58:58.558Z,100.00
2022-09-13T22:01:27.188Z,100.00
2022-09-13T22:03:54.121Z,100.00
2022-09-13T22:06:22.285Z,99.27
2022-09-13T22:08:51.604Z,99.13
2022-09-13T22:11:26.691Z,99.18
2022-09-13T22:13:53.698Z,99.38
2022-09-13T22:16:35.413Z,100.00
2022-09-13T22:19:11.081Z,100.00
2022-09-13T22:21:43.232Z,100.00
2022-09-13T22:24:13.964Z,100.00
2022-09-13T22:26:41.206Z,100.00
2022-09-13T22:29:07.982Z,100.00
2022-09-13T22:31:38.458Z,100.00
2022-09-13T22:34:06.568Z,99.95
2022-09-13T22:36:33.282Z,99.10
2022-09-13T22:39:00.007Z,99.27
2022-09-13T22:41:28.984Z,99.06
2022-09-13T22:43:56.049Z,98.97
2022-09-13T22:46:26.834Z,98.85
2022-09-13T22:48:54.095Z,99.51
2022-09-13T22:51:21.084Z,100.00
2022-09-13T22:53:50.318Z,100.00
2022-09-13T22:56:31.429Z,100.00
2022-09-13T22:59:02.108Z,100.00
2022-09-13T23:01:29.120Z,100.00
2022-09-13T23:03:56.066Z,100.00
2022-09-13T23:06:25.070Z,100.00
2022-09-13T23:08:54.673Z,100.00
2022-09-13T23:11:25.751Z,100.00
2022-09-13T23:13:57.295Z,100.00
2022-09-13T23:16:30.061Z,100.00
2022-09-13T23:18:57.317Z,100.00
2022-09-13T23:21:26.573Z,100.00
2022-09-13T23:23:54.027Z,100.00
2022-09-13T23:26:23.280Z,100.00
2022-09-13T23:28:56.315Z,100.00
2022-09-13T23:31:26.236Z,100.00
2022-09-13T23:33:55.844Z,99.41
2022-09-13T23:36:25.676Z,98.79
2022-09-13T23:38:54.616Z,97.69
2022-09-13T23:41:22.370Z,97.69
2022-09-13T23:43:49.519Z,97.41
2022-09-13T23:46:16.192Z,97.28
2022-09-13T23:48:45.465Z,97.70
2022-09-13T23:51:14.649Z,97.66
2022-09-13T23:53:41.780Z,97.38
2022-09-13T23:56:08.963Z,96.74
2022-09-13T23:58:36.721Z,96.52
